sensor_id;sensor_type;location;lat;lon;timestamp;P1;durP1;ratioP1;P2;durP2;ratioP2
13975;SDS011;7062;49.792;9.946;2023-02-25T00:01:19;8.68;;;6.88;;
13975;SDS011;7062;49.792;9.946;2023-02-25T00:03:49;12.88;;;8.90;;
13975;SDS011;7062;49.792;9.946;2023-02-25T00:06:17;11.68;;;7.70;;
13975;SDS011;7062;49.792;9.946;2023-02-25T00:08:43;13.23;;;8.23;;
13975;SDS011;7062;49.792;9.946;2023-02-25T00:11:10;10.90;;;8.68;;
13975;SDS011;7062;49.792;9.946;2023-02-25T00:13:37;13.18;;;6.68;;
13975;SDS011;7062;49.792;9.946;2023-02-25T00:16:04;8.77;;;7.32;;
13975;SDS011;7062;49.792;9.946;2023-02-25T00:18:31;8.65;;;6.30;;
13975;SDS011;7062;49.792;9.946;2023-02-25T00:20:57;8.77;;;6.00;;
13975;SDS011;7062;49.792;9.946;2023-02-25T00:23:23;8.30;;;6.97;;
13975;SDS011;7062;49.792;9.946;2023-02-25T00:25:56;8.65;;;5.78;;
13975;SDS011;7062;49.792;9.946;2023-02-25T00:28:26;11.07;;;7.47;;
13975;SDS011;7062;49.792;9.946;2023-02-25T00:30:52;10.02;;;6.50;;
13975;SDS011;7062;49.792;9.946;2023-02-25T00:33:18;9.13;;;6.17;;
13975;SDS011;7062;49.792;9.946;2023-02-25T00:35:43;7.73;;;6.63;;
13975;SDS011;7062;49.792;9.946;2023-02-25T00:38:09;8.87;;;6.43;;
13975;SDS011;7062;49.792;9.946;2023-02-25T00:40:38;8.17;;;5.90;;
13975;SDS011;7062;49.792;9.946;2023-02-25T00:43:04;9.38;;;6.10;;
13975;SDS011;7062;49.792;9.946;2023-02-25T00:45:30;9.50;;;5.95;;
13975;SDS011;7062;49.792;9.946;2023-02-25T00:47:56;8.67;;;6.13;;
13975;SDS011;7062;49.792;9.946;2023-02-25T00:50:21;9.23;;;6.70;;
13975;SDS011;7062;49.792;9.946;2023-02-25T00:52:47;6.20;;;5.60;;
13975;SDS011;7062;49.792;9.946;2023-02-25T00:55:13;7.17;;;5.37;;
13975;SDS011;7062;49.792;9.946;2023-02-25T00:57:39;8.43;;;5.47;;
13975;SDS011;7062;49.792;9.946;2023-02-25T01:00:04;6.80;;;5.03;;
13975;SDS011;7062;49.792;9.946;2023-02-25T01:02:35;7.18;;;5.10;;
13975;SDS011;7062;49.792;9.946;2023-02-25T01:05:01;8.57;;;4.90;;
13975;SDS011;7062;49.792;9.946;2023-02-25T01:07:27;10.33;;;4.67;;
13975;SDS011;7062;49.792;9.946;2023-02-25T01:09:55;8.27;;;4.77;;
13975;SDS011;7062;49.792;9.946;2023-02-25T01:12:22;8.35;;;4.88;;
13975;SDS011;7062;49.792;9.946;2023-02-25T01:14:48;8.77;;;5.27;;
13975;SDS011;7062;49.792;9.946;2023-02-25T01:17:13;5.63;;;4.25;;
13975;SDS011;7062;49.792;9.946;2023-02-25T01:19:39;5.77;;;3.70;;
13975;SDS011;7062;49.792;9.946;2023-02-25T01:22:05;7.80;;;3.53;;
13975;SDS011;7062;49.792;9.946;2023-02-25T01:24:32;10.80;;;3.55;;
13975;SDS011;7062;49.792;9.946;2023-02-25T01:26:59;6.75;;;3.50;;
13975;SDS011;7062;49.792;9.946;2023-02-25T01:29:28;6.35;;;2.65;;
13975;SDS011;7062;49.792;9.946;2023-02-25T01:31:57;7.97;;;2.90;;
13975;SDS011;7062;49.792;9.946;2023-02-25T01:34:24;3.83;;;1.90;;
13975;SDS011;7062;49.792;9.946;2023-02-25T01:36:50;4.23;;;2.00;;
13975;SDS011;7062;49.792;9.946;2023-02-25T01:39:20;3.55;;;2.08;;
13975;SDS011;7062;49.792;9.946;2023-02-25T01:41:46;5.30;;;2.50;;
13975;SDS011;7062;49.792;9.946;2023-02-25T01:46:48;5.15;;;1.60;;
13975;SDS011;7062;49.792;9.946;2023-02-25T01:52:11;4.47;;;2.25;;
13975;SDS011;7062;49.792;9.946;2023-02-25T01:54:40;5.85;;;2.72;;
13975;SDS011;7062;49.792;9.946;2023-02-25T01:57:09;5.72;;;2.60;;
13975;SDS011;7062;49.792;9.946;2023-02-25T01:59:38;6.15;;;2.42;;
13975;SDS011;7062;49.792;9.946;2023-02-25T02:02:06;4.60;;;2.50;;
13975;SDS011;7062;49.792;9.946;2023-02-25T02:04:33;12.13;;;3.38;;
13975;SDS011;7062;49.792;9.946;2023-02-25T02:07:01;5.90;;;2.75;;
13975;SDS011;7062;49.792;9.946;2023-02-25T02:09:28;3.90;;;2.67;;
13975;SDS011;7062;49.792;9.946;2023-02-25T02:11:55;6.75;;;3.03;;
13975;SDS011;7062;49.792;9.946;2023-02-25T02:14:27;5.78;;;3.10;;
13975;SDS011;7062;49.792;9.946;2023-02-25T02:36:14;2.88;;;1.88;;
13975;SDS011;7062;49.792;9.946;2023-02-25T02:44:04;9.63;;;2.63;;
13975;SDS011;7062;49.792;9.946;2023-02-25T02:46:59;2.88;;;2.35;;
13975;SDS011;7062;49.792;9.946;2023-02-25T02:52:03;5.18;;;1.75;;
13975;SDS011;7062;49.792;9.946;2023-02-25T02:54:35;4.18;;;1.85;;
13975;SDS011;7062;49.792;9.946;2023-02-25T02:57:03;3.75;;;1.95;;
13975;SDS011;7062;49.792;9.946;2023-02-25T02:59:36;8.57;;;2.53;;
13975;SDS011;7062;49.792;9.946;2023-02-25T03:02:29;4.20;;;2.05;;
13975;SDS011;7062;49.792;9.946;2023-02-25T03:05:00;5.70;;;1.77;;
13975;SDS011;7062;49.792;9.946;2023-02-25T03:07:30;8.13;;;2.05;;
13975;SDS011;7062;49.792;9.946;2023-02-25T03:10:00;8.13;;;2.40;;
13975;SDS011;7062;49.792;9.946;2023-02-25T03:12:29;3.47;;;1.80;;
13975;SDS011;7062;49.792;9.946;2023-02-25T03:14:55;5.13;;;2.10;;
13975;SDS011;7062;49.792;9.946;2023-02-25T03:22:45;8.25;;;2.88;;
13975;SDS011;7062;49.792;9.946;2023-02-25T03:25:31;10.77;;;2.25;;
13975;SDS011;7062;49.792;9.946;2023-02-25T03:28:03;2.67;;;1.95;;
13975;SDS011;7062;49.792;9.946;2023-02-25T03:30:47;6.05;;;1.75;;
13975;SDS011;7062;49.792;9.946;2023-02-25T03:33:31;7.35;;;2.42;;
13975;SDS011;7062;49.792;9.946;2023-02-25T03:36:12;8.43;;;2.25;;
13975;SDS011;7062;49.792;9.946;2023-02-25T03:38:55;3.65;;;2.03;;
13975;SDS011;7062;49.792;9.946;2023-02-25T03:41:28;6.85;;;2.55;;
13975;SDS011;7062;49.792;9.946;2023-02-25T03:43:59;13.07;;;2.60;;
13975;SDS011;7062;49.792;9.946;2023-02-25T03:46:28;8.27;;;2.30;;
13975;SDS011;7062;49.792;9.946;2023-02-25T03:48:57;6.80;;;2.92;;
13975;SDS011;7062;49.792;9.946;2023-02-25T03:51:26;8.35;;;2.80;;
13975;SDS011;7062;49.792;9.946;2023-02-25T03:53:55;7.72;;;2.85;;
13975;SDS011;7062;49.792;9.946;2023-02-25T03:56:20;7.23;;;2.97;;
13975;SDS011;7062;49.792;9.946;2023-02-25T03:58:46;8.07;;;3.17;;
13975;SDS011;7062;49.792;9.946;2023-02-25T04:01:16;9.93;;;3.23;;
13975;SDS011;7062;49.792;9.946;2023-02-25T04:03:48;7.63;;;2.80;;
13975;SDS011;7062;49.792;9.946;2023-02-25T04:06:14;5.67;;;1.90;;
13975;SDS011;7062;49.792;9.946;2023-02-25T04:08:40;6.60;;;3.63;;
13975;SDS011;7062;49.792;9.946;2023-02-25T04:11:06;12.98;;;3.55;;
13975;SDS011;7062;49.792;9.946;2023-02-25T04:13:32;5.87;;;2.23;;
13975;SDS011;7062;49.792;9.946;2023-02-25T04:15:57;8.63;;;2.73;;
13975;SDS011;7062;49.792;9.946;2023-02-25T04:18:23;10.93;;;3.07;;
13975;SDS011;7062;49.792;9.946;2023-02-25T04:20:50;7.43;;;3.58;;
13975;SDS011;7062;49.792;9.946;2023-02-25T04:23:16;7.87;;;2.90;;
13975;SDS011;7062;49.792;9.946;2023-02-25T04:25:42;7.10;;;2.33;;
13975;SDS011;7062;49.792;9.946;2023-02-25T04:28:08;7.30;;;3.30;;
13975;SDS011;7062;49.792;9.946;2023-02-25T04:30:35;4.65;;;2.42;;
13975;SDS011;7062;49.792;9.946;2023-02-25T04:33:01;7.22;;;2.53;;
13975;SDS011;7062;49.792;9.946;2023-02-25T04:35:27;8.07;;;2.70;;
13975;SDS011;7062;49.792;9.946;2023-02-25T04:37:52;12.67;;;3.00;;
13975;SDS011;7062;49.792;9.946;2023-02-25T04:40:19;7.37;;;2.37;;
13975;SDS011;7062;49.792;9.946;2023-02-25T04:42:46;6.40;;;2.78;;
13975;SDS011;7062;49.792;9.946;2023-02-25T04:45:13;7.20;;;2.43;;
13975;SDS011;7062;49.792;9.946;2023-02-25T04:47:40;8.48;;;2.05;;
13975;SDS011;7062;49.792;9.946;2023-02-25T04:50:06;5.78;;;2.78;;
13975;SDS011;7062;49.792;9.946;2023-02-25T04:52:34;7.32;;;2.80;;
13975;SDS011;7062;49.792;9.946;2023-02-25T04:55:00;8.27;;;2.33;;
13975;SDS011;7062;49.792;9.946;2023-02-25T04:57:26;7.63;;;2.47;;
13975;SDS011;7062;49.792;9.946;2023-02-25T04:59:52;8.87;;;2.73;;
13975;SDS011;7062;49.792;9.946;2023-02-25T05:02:17;6.73;;;2.43;;
13975;SDS011;7062;49.792;9.946;2023-02-25T05:04:44;7.18;;;1.98;;
13975;SDS011;7062;49.792;9.946;2023-02-25T05:07:09;5.50;;;1.90;;
13975;SDS011;7062;49.792;9.946;2023-02-25T05:09:35;11.67;;;2.50;;
13975;SDS011;7062;49.792;9.946;2023-02-25T05:12:00;6.97;;;2.23;;
13975;SDS011;7062;49.792;9.946;2023-02-25T05:14:26;5.53;;;1.80;;
13975;SDS011;7062;49.792;9.946;2023-02-25T05:16:52;7.23;;;1.90;;
13975;SDS011;7062;49.792;9.946;2023-02-25T05:19:19;9.20;;;2.30;;
13975;SDS011;7062;49.792;9.946;2023-02-25T05:21:46;6.03;;;2.67;;
13975;SDS011;7062;49.792;9.946;2023-02-25T05:24:13;6.63;;;2.15;;
13975;SDS011;7062;49.792;9.946;2023-02-25T05:26:38;7.93;;;2.00;;
13975;SDS011;7062;49.792;9.946;2023-02-25T05:29:04;7.30;;;2.30;;
13975;SDS011;7062;49.792;9.946;2023-02-25T05:31:30;4.70;;;1.90;;
13975;SDS011;7062;49.792;9.946;2023-02-25T05:33:56;10.77;;;2.00;;
13975;SDS011;7062;49.792;9.946;2023-02-25T05:36:22;12.27;;;2.63;;
13975;SDS011;7062;49.792;9.946;2023-02-25T05:38:47;6.53;;;3.40;;
13975;SDS011;7062;49.792;9.946;2023-02-25T05:41:14;7.22;;;2.47;;
13975;SDS011;7062;49.792;9.946;2023-02-25T05:43:40;11.13;;;2.17;;
13975;SDS011;7062;49.792;9.946;2023-02-25T05:46:06;7.97;;;2.40;;
13975;SDS011;7062;49.792;9.946;2023-02-25T05:48:35;5.18;;;2.88;;
13975;SDS011;7062;49.792;9.946;2023-02-25T05:51:06;9.05;;;2.85;;
13975;SDS011;7062;49.792;9.946;2023-02-25T05:53:34;5.60;;;2.45;;
13975;SDS011;7062;49.792;9.946;2023-02-25T05:56:05;7.03;;;2.30;;
13975;SDS011;7062;49.792;9.946;2023-02-25T05:58:32;9.82;;;2.65;;
13975;SDS011;7062;49.792;9.946;2023-02-25T06:00:58;8.35;;;2.80;;
13975;SDS011;7062;49.792;9.946;2023-02-25T06:03:25;9.15;;;3.00;;
13975;SDS011;7062;49.792;9.946;2023-02-25T06:05:50;10.87;;;2.53;;
13975;SDS011;7062;49.792;9.946;2023-02-25T06:08:17;10.23;;;2.47;;
13975;SDS011;7062;49.792;9.946;2023-02-25T06:10:43;9.93;;;3.00;;
13975;SDS011;7062;49.792;9.946;2023-02-25T06:13:09;5.93;;;2.53;;
13975;SDS011;7062;49.792;9.946;2023-02-25T06:15:36;6.75;;;2.75;;
13975;SDS011;7062;49.792;9.946;2023-02-25T06:18:03;11.70;;;2.78;;
13975;SDS011;7062;49.792;9.946;2023-02-25T06:20:29;9.32;;;2.88;;
13975;SDS011;7062;49.792;9.946;2023-02-25T06:22:54;8.93;;;3.83;;
13975;SDS011;7062;49.792;9.946;2023-02-25T06:25:20;7.63;;;3.17;;
13975;SDS011;7062;49.792;9.946;2023-02-25T06:27:46;10.33;;;3.27;;
13975;SDS011;7062;49.792;9.946;2023-02-25T06:30:12;10.37;;;2.63;;
13975;SDS011;7062;49.792;9.946;2023-02-25T06:32:38;6.75;;;2.85;;
13975;SDS011;7062;49.792;9.946;2023-02-25T06:35:04;7.20;;;2.97;;
13975;SDS011;7062;49.792;9.946;2023-02-25T06:37:30;8.85;;;3.53;;
13975;SDS011;7062;49.792;9.946;2023-02-25T06:39:56;12.60;;;3.85;;
13975;SDS011;7062;49.792;9.946;2023-02-25T06:42:22;11.77;;;3.33;;
13975;SDS011;7062;49.792;9.946;2023-02-25T06:44:48;7.80;;;3.83;;
13975;SDS011;7062;49.792;9.946;2023-02-25T06:47:13;12.03;;;3.53;;
13975;SDS011;7062;49.792;9.946;2023-02-25T06:49:39;11.03;;;4.07;;
13975;SDS011;7062;49.792;9.946;2023-02-25T06:52:05;10.57;;;2.77;;
13975;SDS011;7062;49.792;9.946;2023-02-25T06:54:30;10.90;;;3.03;;
13975;SDS011;7062;49.792;9.946;2023-02-25T06:56:56;8.97;;;2.90;;
13975;SDS011;7062;49.792;9.946;2023-02-25T06:59:22;9.53;;;3.33;;
13975;SDS011;7062;49.792;9.946;2023-02-25T07:01:47;10.63;;;3.43;;
13975;SDS011;7062;49.792;9.946;2023-02-25T07:04:14;7.67;;;3.50;;
13975;SDS011;7062;49.792;9.946;2023-02-25T07:06:41;9.25;;;4.28;;
13975;SDS011;7062;49.792;9.946;2023-02-25T07:09:06;17.67;;;4.67;;
13975;SDS011;7062;49.792;9.946;2023-02-25T07:11:32;9.20;;;4.00;;
13975;SDS011;7062;49.792;9.946;2023-02-25T07:14:01;10.93;;;3.85;;
13975;SDS011;7062;49.792;9.946;2023-02-25T07:16:27;15.07;;;4.28;;
13975;SDS011;7062;49.792;9.946;2023-02-25T07:18:54;11.65;;;3.97;;
13975;SDS011;7062;49.792;9.946;2023-02-25T07:21:20;5.57;;;3.50;;
13975;SDS011;7062;49.792;9.946;2023-02-25T07:23:47;11.32;;;3.95;;
13975;SDS011;7062;49.792;9.946;2023-02-25T07:26:13;6.93;;;3.17;;
13975;SDS011;7062;49.792;9.946;2023-02-25T07:28:39;9.65;;;4.43;;
13975;SDS011;7062;49.792;9.946;2023-02-25T07:31:12;12.15;;;4.50;;
13975;SDS011;7062;49.792;9.946;2023-02-25T07:33:42;6.50;;;3.47;;
13975;SDS011;7062;49.792;9.946;2023-02-25T07:36:08;7.63;;;3.83;;
13975;SDS011;7062;49.792;9.946;2023-02-25T07:38:35;7.60;;;4.00;;
13975;SDS011;7062;49.792;9.946;2023-02-25T07:41:05;13.02;;;3.95;;
13975;SDS011;7062;49.792;9.946;2023-02-25T07:43:31;6.38;;;3.60;;
13975;SDS011;7062;49.792;9.946;2023-02-25T07:45:57;8.33;;;3.80;;
13975;SDS011;7062;49.792;9.946;2023-02-25T07:48:23;8.75;;;4.05;;
13975;SDS011;7062;49.792;9.946;2023-02-25T07:50:48;8.53;;;4.00;;
13975;SDS011;7062;49.792;9.946;2023-02-25T07:53:14;9.77;;;3.17;;
13975;SDS011;7062;49.792;9.946;2023-02-25T07:55:43;17.47;;;4.67;;
13975;SDS011;7062;49.792;9.946;2023-02-25T07:58:10;8.88;;;4.18;;
13975;SDS011;7062;49.792;9.946;2023-02-25T08:00:36;11.27;;;3.58;;
13975;SDS011;7062;49.792;9.946;2023-02-25T08:03:03;11.70;;;3.70;;
13975;SDS011;7062;49.792;9.946;2023-02-25T08:05:33;15.85;;;4.70;;
13975;SDS011;7062;49.792;9.946;2023-02-25T08:07:59;10.85;;;3.78;;
13975;SDS011;7062;49.792;9.946;2023-02-25T08:10:25;12.70;;;3.47;;
13975;SDS011;7062;49.792;9.946;2023-02-25T08:12:51;9.47;;;3.40;;
13975;SDS011;7062;49.792;9.946;2023-02-25T08:15:17;7.23;;;2.70;;
13975;SDS011;7062;49.792;9.946;2023-02-25T08:17:42;8.70;;;3.80;;
13975;SDS011;7062;49.792;9.946;2023-02-25T08:20:08;13.07;;;3.80;;
13975;SDS011;7062;49.792;9.946;2023-02-25T08:22:35;12.43;;;3.63;;
13975;SDS011;7062;49.792;9.946;2023-02-25T08:25:01;7.80;;;2.78;;
13975;SDS011;7062;49.792;9.946;2023-02-25T08:27:27;12.13;;;3.53;;
13975;SDS011;7062;49.792;9.946;2023-02-25T08:29:52;7.73;;;3.97;;
13975;SDS011;7062;49.792;9.946;2023-02-25T08:32:18;13.13;;;2.97;;
13975;SDS011;7062;49.792;9.946;2023-02-25T08:34:44;8.07;;;3.07;;
13975;SDS011;7062;49.792;9.946;2023-02-25T08:37:09;9.30;;;3.17;;
13975;SDS011;7062;49.792;9.946;2023-02-25T08:39:35;5.77;;;2.30;;
13975;SDS011;7062;49.792;9.946;2023-02-25T08:42:02;3.55;;;2.08;;
13975;SDS011;7062;49.792;9.946;2023-02-25T08:44:28;7.95;;;3.22;;
13975;SDS011;7062;49.792;9.946;2023-02-25T08:46:54;7.17;;;2.90;;
13975;SDS011;7062;49.792;9.946;2023-02-25T08:49:19;7.40;;;2.23;;
13975;SDS011;7062;49.792;9.946;2023-02-25T08:51:45;11.47;;;3.90;;
13975;SDS011;7062;49.792;9.946;2023-02-25T08:54:14;11.65;;;3.08;;
13975;SDS011;7062;49.792;9.946;2023-02-25T08:56:41;6.35;;;3.45;;
13975;SDS011;7062;49.792;9.946;2023-02-25T08:59:12;8.55;;;3.50;;
13975;SDS011;7062;49.792;9.946;2023-02-25T09:01:39;13.43;;;3.47;;
13975;SDS011;7062;49.792;9.946;2023-02-25T09:04:15;9.88;;;3.17;;
13975;SDS011;7062;49.792;9.946;2023-02-25T09:06:46;6.25;;;2.92;;
13975;SDS011;7062;49.792;9.946;2023-02-25T09:09:16;7.75;;;3.47;;
13975;SDS011;7062;49.792;9.946;2023-02-25T09:11:44;7.50;;;2.97;;
13975;SDS011;7062;49.792;9.946;2023-02-25T09:14:12;6.35;;;2.00;;
13975;SDS011;7062;49.792;9.946;2023-02-25T09:16:38;8.52;;;3.75;;
13975;SDS011;7062;49.792;9.946;2023-02-25T09:19:03;6.33;;;2.77;;
13975;SDS011;7062;49.792;9.946;2023-02-25T09:21:29;4.70;;;2.63;;
13975;SDS011;7062;49.792;9.946;2023-02-25T09:23:55;5.53;;;2.57;;
13975;SDS011;7062;49.792;9.946;2023-02-25T09:26:22;8.55;;;2.90;;
13975;SDS011;7062;49.792;9.946;2023-02-25T09:28:48;3.60;;;2.50;;
13975;SDS011;7062;49.792;9.946;2023-02-25T09:31:13;4.47;;;2.87;;
13975;SDS011;7062;49.792;9.946;2023-02-25T09:33:40;10.63;;;3.83;;
13975;SDS011;7062;49.792;9.946;2023-02-25T09:36:11;8.38;;;3.50;;
13975;SDS011;7062;49.792;9.946;2023-02-25T09:38:39;7.00;;;2.30;;
13975;SDS011;7062;49.792;9.946;2023-02-25T09:43:44;5.23;;;2.30;;
13975;SDS011;7062;49.792;9.946;2023-02-25T09:46:12;6.13;;;2.77;;
13975;SDS011;7062;49.792;9.946;2023-02-25T09:49:05;6.13;;;3.70;;
13975;SDS011;7062;49.792;9.946;2023-02-25T09:51:36;7.43;;;2.30;;
13975;SDS011;7062;49.792;9.946;2023-02-25T09:54:41;7.10;;;2.97;;
13975;SDS011;7062;49.792;9.946;2023-02-25T09:57:01;9.80;;;2.78;;
13975;SDS011;7062;49.792;9.946;2023-02-25T09:59:30;6.55;;;2.60;;
13975;SDS011;7062;49.792;9.946;2023-02-25T10:04:53;3.65;;;2.35;;
13975;SDS011;7062;49.792;9.946;2023-02-25T10:08:14;10.25;;;3.22;;
13975;SDS011;7062;49.792;9.946;2023-02-25T10:15:46;6.95;;;3.20;;
13975;SDS011;7062;49.792;9.946;2023-02-25T10:20:52;11.55;;;3.17;;
13975;SDS011;7062;49.792;9.946;2023-02-25T10:28:48;9.63;;;2.70;;
13975;SDS011;7062;49.792;9.946;2023-02-25T10:31:19;11.82;;;3.13;;
13975;SDS011;7062;49.792;9.946;2023-02-25T10:33:47;8.65;;;3.20;;
13975;SDS011;7062;49.792;9.946;2023-02-25T10:36:26;8.95;;;3.03;;
13975;SDS011;7062;49.792;9.946;2023-02-25T10:38:59;8.25;;;3.00;;
13975;SDS011;7062;49.792;9.946;2023-02-25T10:41:24;5.63;;;3.13;;
13975;SDS011;7062;49.792;9.946;2023-02-25T10:43:51;10.23;;;3.50;;
13975;SDS011;7062;49.792;9.946;2023-02-25T10:48:54;6.80;;;3.37;;
13975;SDS011;7062;49.792;9.946;2023-02-25T10:51:22;7.00;;;3.28;;
13975;SDS011;7062;49.792;9.946;2023-02-25T10:56:21;9.70;;;3.40;;
13975;SDS011;7062;49.792;9.946;2023-02-25T10:59:03;5.45;;;3.20;;
13975;SDS011;7062;49.792;9.946;2023-02-25T11:01:37;10.05;;;2.97;;
13975;SDS011;7062;49.792;9.946;2023-02-25T11:04:05;6.78;;;3.05;;
13975;SDS011;7062;49.792;9.946;2023-02-25T11:06:37;7.00;;;3.08;;
13975;SDS011;7062;49.792;9.946;2023-02-25T11:09:26;7.00;;;2.83;;
13975;SDS011;7062;49.792;9.946;2023-02-25T11:11:56;7.10;;;3.00;;
13975;SDS011;7062;49.792;9.946;2023-02-25T11:14:26;6.30;;;3.40;;
13975;SDS011;7062;49.792;9.946;2023-02-25T11:17:15;5.33;;;2.20;;
13975;SDS011;7062;49.792;9.946;2023-02-25T11:19:57;4.70;;;2.67;;
13975;SDS011;7062;49.792;9.946;2023-02-25T11:22:29;9.07;;;2.90;;
13975;SDS011;7062;49.792;9.946;2023-02-25T11:25:02;4.40;;;2.00;;
13975;SDS011;7062;49.792;9.946;2023-02-25T11:27:35;6.97;;;2.53;;
13975;SDS011;7062;49.792;9.946;2023-02-25T11:30:06;5.83;;;2.13;;
13975;SDS011;7062;49.792;9.946;2023-02-25T11:32:53;8.73;;;3.67;;
13975;SDS011;7062;49.792;9.946;2023-02-25T11:35:25;4.77;;;2.33;;
13975;SDS011;7062;49.792;9.946;2023-02-25T11:37:55;3.63;;;2.40;;
13975;SDS011;7062;49.792;9.946;2023-02-25T11:40:40;5.93;;;2.37;;
13975;SDS011;7062;49.792;9.946;2023-02-25T11:43:15;7.90;;;2.20;;
13975;SDS011;7062;49.792;9.946;2023-02-25T11:45:53;5.95;;;2.80;;
13975;SDS011;7062;49.792;9.946;2023-02-25T11:48:51;2.53;;;1.85;;
13975;SDS011;7062;49.792;9.946;2023-02-25T11:54:24;3.43;;;1.60;;
13975;SDS011;7062;49.792;9.946;2023-02-25T12:05:37;4.93;;;3.27;;
13975;SDS011;7062;49.792;9.946;2023-02-25T12:26:13;1.70;;;1.58;;
13975;SDS011;7062;49.792;9.946;2023-02-25T12:32:29;3.25;;;1.83;;
13975;SDS011;7062;49.792;9.946;2023-02-25T12:43:59;4.47;;;2.00;;
13975;SDS011;7062;49.792;9.946;2023-02-25T12:47:00;6.95;;;2.90;;
13975;SDS011;7062;49.792;9.946;2023-02-25T12:52:22;5.45;;;2.05;;
13975;SDS011;7062;49.792;9.946;2023-02-25T12:55:18;4.03;;;1.90;;
13975;SDS011;7062;49.792;9.946;2023-02-25T13:03:26;2.67;;;1.33;;
13975;SDS011;7062;49.792;9.946;2023-02-25T13:12:00;2.45;;;1.10;;
13975;SDS011;7062;49.792;9.946;2023-02-25T13:17:24;1.10;;;0.70;;
13975;SDS011;7062;49.792;9.946;2023-02-25T13:25:28;1.48;;;0.47;;
13975;SDS011;7062;49.792;9.946;2023-02-25T13:30:58;3.75;;;0.70;;
13975;SDS011;7062;49.792;9.946;2023-02-25T13:47:35;0.90;;;0.70;;
13975;SDS011;7062;49.792;9.946;2023-02-25T13:50:27;1.33;;;0.60;;
13975;SDS011;7062;49.792;9.946;2023-02-25T13:56:09;0.97;;;0.53;;
13975;SDS011;7062;49.792;9.946;2023-02-25T14:02:02;2.63;;;0.70;;
13975;SDS011;7062;49.792;9.946;2023-02-25T14:04:54;3.50;;;0.80;;
13975;SDS011;7062;49.792;9.946;2023-02-25T14:08:05;0.77;;;0.50;;
13975;SDS011;7062;49.792;9.946;2023-02-25T14:16:53;0.80;;;0.60;;
13975;SDS011;7062;49.792;9.946;2023-02-25T14:27:50;2.17;;;0.70;;
13975;SDS011;7062;49.792;9.946;2023-02-25T14:43:36;3.27;;;1.00;;
13975;SDS011;7062;49.792;9.946;2023-02-25T14:51:52;4.20;;;1.15;;
13975;SDS011;7062;49.792;9.946;2023-02-25T14:57:31;1.85;;;0.80;;
13975;SDS011;7062;49.792;9.946;2023-02-25T15:03:08;2.50;;;0.90;;
13975;SDS011;7062;49.792;9.946;2023-02-25T15:17:32;3.22;;;0.82;;
13975;SDS011;7062;49.792;9.946;2023-02-25T15:23:08;3.08;;;1.20;;
13975;SDS011;7062;49.792;9.946;2023-02-25T15:25:43;3.90;;;1.13;;
13975;SDS011;7062;49.792;9.946;2023-02-25T15:49:17;2.13;;;0.98;;
13975;SDS011;7062;49.792;9.946;2023-02-25T15:51:52;2.40;;;1.00;;
13975;SDS011;7062;49.792;9.946;2023-02-25T15:56:52;3.67;;;0.70;;
13975;SDS011;7062;49.792;9.946;2023-02-25T16:04:56;4.00;;;1.00;;
13975;SDS011;7062;49.792;9.946;2023-02-25T16:07:23;1.95;;;0.60;;
13975;SDS011;7062;49.792;9.946;2023-02-25T16:12:42;3.50;;;0.70;;
13975;SDS011;7062;49.792;9.946;2023-02-25T16:15:54;3.30;;;0.60;;
13975;SDS011;7062;49.792;9.946;2023-02-25T16:18:26;3.78;;;0.90;;
13975;SDS011;7062;49.792;9.946;2023-02-25T16:20:52;2.28;;;0.75;;
13975;SDS011;7062;49.792;9.946;2023-02-25T16:23:23;5.70;;;0.90;;
13975;SDS011;7062;49.792;9.946;2023-02-25T16:31:52;3.72;;;0.70;;
13975;SDS011;7062;49.792;9.946;2023-02-25T16:39:56;4.38;;;1.13;;
13975;SDS011;7062;49.792;9.946;2023-02-25T16:42:22;5.07;;;0.77;;
13975;SDS011;7062;49.792;9.946;2023-02-25T16:44:55;3.23;;;1.10;;
13975;SDS011;7062;49.792;9.946;2023-02-25T16:47:24;4.50;;;0.90;;
13975;SDS011;7062;49.792;9.946;2023-02-25T16:49:53;7.13;;;0.77;;
13975;SDS011;7062;49.792;9.946;2023-02-25T16:52:29;3.25;;;0.98;;
13975;SDS011;7062;49.792;9.946;2023-02-25T16:55:00;1.38;;;0.70;;
13975;SDS011;7062;49.792;9.946;2023-02-25T16:57:30;1.70;;;0.85;;
13975;SDS011;7062;49.792;9.946;2023-02-25T17:00:31;1.90;;;0.88;;
13975;SDS011;7062;49.792;9.946;2023-02-25T17:02:50;2.50;;;0.90;;
13975;SDS011;7062;49.792;9.946;2023-02-25T17:05:24;2.53;;;0.75;;
13975;SDS011;7062;49.792;9.946;2023-02-25T17:07:54;2.30;;;0.60;;
13975;SDS011;7062;49.792;9.946;2023-02-25T17:10:31;1.38;;;0.82;;
13975;SDS011;7062;49.792;9.946;2023-02-25T17:15:57;3.22;;;1.05;;
13975;SDS011;7062;49.792;9.946;2023-02-25T17:18:28;1.17;;;0.82;;
13975;SDS011;7062;49.792;9.946;2023-02-25T17:20:59;1.67;;;1.20;;
13975;SDS011;7062;49.792;9.946;2023-02-25T17:23:51;1.65;;;0.90;;
13975;SDS011;7062;49.792;9.946;2023-02-25T17:26:18;4.18;;;0.82;;
13975;SDS011;7062;49.792;9.946;2023-02-25T17:28:46;2.40;;;0.80;;
13975;SDS011;7062;49.792;9.946;2023-02-25T17:31:16;2.55;;;1.15;;
13975;SDS011;7062;49.792;9.946;2023-02-25T17:33:48;4.72;;;1.08;;
13975;SDS011;7062;49.792;9.946;2023-02-25T17:36:17;6.13;;;1.00;;
13975;SDS011;7062;49.792;9.946;2023-02-25T17:38:45;1.65;;;0.77;;
13975;SDS011;7062;49.792;9.946;2023-02-25T17:41:17;2.15;;;1.05;;
13975;SDS011;7062;49.792;9.946;2023-02-25T17:43:45;2.55;;;0.90;;
13975;SDS011;7062;49.792;9.946;2023-02-25T17:46:27;1.50;;;0.83;;
13975;SDS011;7062;49.792;9.946;2023-02-25T17:49:02;1.77;;;0.82;;
13975;SDS011;7062;49.792;9.946;2023-02-25T17:51:41;2.03;;;0.70;;
13975;SDS011;7062;49.792;9.946;2023-02-25T17:54:07;7.57;;;1.07;;
13975;SDS011;7062;49.792;9.946;2023-02-25T17:56:42;2.20;;;1.17;;
13975;SDS011;7062;49.792;9.946;2023-02-25T18:01:44;4.57;;;1.25;;
13975;SDS011;7062;49.792;9.946;2023-02-25T18:04:40;1.65;;;0.95;;
13975;SDS011;7062;49.792;9.946;2023-02-25T18:09:56;3.08;;;0.75;;
13975;SDS011;7062;49.792;9.946;2023-02-25T18:12:24;1.27;;;0.80;;
13975;SDS011;7062;49.792;9.946;2023-02-25T18:15:03;1.50;;;0.90;;
13975;SDS011;7062;49.792;9.946;2023-02-25T18:17:46;4.70;;;1.30;;
13975;SDS011;7062;49.792;9.946;2023-02-25T18:22:52;3.00;;;0.98;;
13975;SDS011;7062;49.792;9.946;2023-02-25T18:25:33;3.67;;;0.70;;
13975;SDS011;7062;49.792;9.946;2023-02-25T18:27:59;2.05;;;0.80;;
13975;SDS011;7062;49.792;9.946;2023-02-25T18:30:26;2.83;;;1.00;;
13975;SDS011;7062;49.792;9.946;2023-02-25T18:32:54;3.20;;;0.65;;
13975;SDS011;7062;49.792;9.946;2023-02-25T18:35:23;1.15;;;0.60;;
13975;SDS011;7062;49.792;9.946;2023-02-25T18:37:53;3.92;;;1.00;;
13975;SDS011;7062;49.792;9.946;2023-02-25T18:40:24;2.00;;;0.70;;
13975;SDS011;7062;49.792;9.946;2023-02-25T18:42:55;2.05;;;1.15;;
13975;SDS011;7062;49.792;9.946;2023-02-25T18:45:22;4.90;;;1.73;;
13975;SDS011;7062;49.792;9.946;2023-02-25T18:47:49;1.45;;;1.23;;
13975;SDS011;7062;49.792;9.946;2023-02-25T18:50:16;1.48;;;0.88;;
13975;SDS011;7062;49.792;9.946;2023-02-25T18:52:43;4.72;;;1.40;;
13975;SDS011;7062;49.792;9.946;2023-02-25T18:55:13;2.17;;;1.10;;
13975;SDS011;7062;49.792;9.946;2023-02-25T18:57:41;2.97;;;1.08;;
13975;SDS011;7062;49.792;9.946;2023-02-25T19:00:08;1.73;;;0.80;;
13975;SDS011;7062;49.792;9.946;2023-02-25T19:02:35;2.55;;;1.02;;
13975;SDS011;7062;49.792;9.946;2023-02-25T19:05:09;4.18;;;1.00;;
13975;SDS011;7062;49.792;9.946;2023-02-25T19:07:35;3.55;;;1.05;;
13975;SDS011;7062;49.792;9.946;2023-02-25T19:10:01;3.17;;;1.85;;
13975;SDS011;7062;49.792;9.946;2023-02-25T19:12:27;4.28;;;1.10;;
13975;SDS011;7062;49.792;9.946;2023-02-25T19:15:03;2.25;;;0.85;;
13975;SDS011;7062;49.792;9.946;2023-02-25T19:17:31;5.30;;;1.70;;
13975;SDS011;7062;49.792;9.946;2023-02-25T19:19:57;3.63;;;1.30;;
13975;SDS011;7062;49.792;9.946;2023-02-25T19:22:23;1.23;;;0.90;;
13975;SDS011;7062;49.792;9.946;2023-02-25T19:24:50;2.70;;;0.80;;
13975;SDS011;7062;49.792;9.946;2023-02-25T19:27:23;1.52;;;0.70;;
13975;SDS011;7062;49.792;9.946;2023-02-25T19:29:52;2.13;;;0.70;;
13975;SDS011;7062;49.792;9.946;2023-02-25T19:32:19;3.28;;;0.95;;
13975;SDS011;7062;49.792;9.946;2023-02-25T19:34:46;1.75;;;0.77;;
13975;SDS011;7062;49.792;9.946;2023-02-25T19:37:12;1.25;;;0.73;;